aviador You're here:

SASA Decoded Metar

SALTA in ARGENTINA
Report Time2017-08-24 03:00:00
UTC Time2017-08-24 03:11:03
Flight Rules vfr VFR
WindCalm
Visibility9999 m
Phenomena:N/A
Clouds:N/A
Expected CloudBase > 3,600 ft AGL from Temp-Dew spread
CeilingNone
Temp13°C (ISA +6)
Dew Point04°C (55% RH)
AAT11.7°C
QNH1014 hPa
Density Alt4,774 ft
Elevation3,990 ft
Report Wrong Elevation
Raw Report
METAR SASA 240300Z 00000KT CAVOK 13/04 Q1014=

Extra information for SASA:More info

Metar Taf Metar & Taf Last 4 Metars F.Rules Stats Wind Profile Meteogram Temp Stats Airport Information Weather charts Add Link Nearby VenuesMetar ALERT Operation Metar Decoded Social comments